KCDS/CDS METAR and TAF weather

Enter ICAO airport designator
Station Type Date Time Source
KCDS METAR 2019/06/26 21:53 UTC NOAA

KCDS 262153Z AUTO 17013G23KT 10SM FEW065 34/18 A3005 RMK AO2 SLP147 T03440178


Station Type Date Time Source
KCDS Decoded METAR 2019/06/26 21:53 UTC NOAA

CHILDRESS MUNICIPAL AIRPORT, TX, United States (KCDS) 34-26N 100-17W 594M
Jun 26, 2019 - 05:53 PM EDT / 2019.06.26 2153 UTC
Wind: from the S (170 degrees) at 15 MPH (13 KT) gusting to 26 MPH (23 KT):0
Visibility: 10 mile(s):0
Sky conditions: mostly clear
Temperature: 93.9 F (34.4 C)
Heat index: 95.5 F (35.3 C):1
Dew Point: 64.0 F (17.8 C)
Relative Humidity: 37%
Pressure (altimeter): 30.05 in. Hg (1017 hPa)
ob: KCDS 262153Z AUTO 17013G23KT 10SM FEW065 34/18 A3005 RMK AO2 SLP147 T03440178
cycle: 22

Station Type Date Time Source
KCDS TAF 2019/06/26 18:33 UTC NOAA

TAF KCDS 261730Z 2618/2718 17015KT P6SM FEW250
FM270300 16011KT P6SM FEW250

Example: see airport list